createdAt,value
2022-09-03T00:00:03.892Z,38.64
2022-09-03T00:02:47.424Z,38.23
2022-09-03T00:05:40.330Z,38.55
2022-09-03T00:08:49.573Z,38.36
2022-09-03T00:11:34.329Z,38.30
2022-09-03T00:14:09.660Z,38.44
2022-09-03T00:16:42.458Z,38.51
2022-09-03T00:19:14.496Z,38.91
2022-09-03T00:21:50.240Z,38.71
2022-09-03T00:24:22.528Z,38.81
2022-09-03T00:26:55.952Z,38.80
2022-09-03T00:29:49.442Z,38.66
2022-09-03T00:32:26.258Z,39.33
2022-09-03T00:35:01.906Z,39.01
2022-09-03T00:37:35.489Z,39.04
2022-09-03T00:40:03.751Z,39.34
2022-09-03T00:42:36.585Z,39.19
2022-09-03T00:45:19.420Z,39.37
2022-09-03T00:47:52.522Z,39.26
2022-09-03T00:50:25.325Z,39.55
2022-09-03T00:53:16.017Z,39.38
2022-09-03T00:55:58.487Z,39.51
2022-09-03T00:58:45.016Z,39.37
2022-09-03T01:01:26.705Z,39.75
2022-09-03T01:04:06.449Z,39.92
2022-09-03T01:07:03.545Z,39.59
2022-09-03T01:09:46.383Z,40.17
2022-09-03T01:12:25.313Z,40.19
2022-09-03T01:15:13.192Z,40.20
2022-09-03T01:17:46.003Z,40.21
2022-09-03T01:20:36.605Z,40.35
2022-09-03T01:23:17.701Z,40.30
2022-09-03T01:25:58.042Z,40.35
2022-09-03T01:28:53.099Z,40.52
2022-09-03T01:31:37.155Z,40.52
2022-09-03T01:34:27.631Z,40.61
2022-09-03T01:37:16.475Z,41.07
2022-09-03T01:40:18.251Z,41.07
2022-09-03T01:43:03.315Z,40.90
2022-09-03T01:45:51.677Z,40.84
2022-09-03T01:48:35.780Z,41.04
2022-09-03T01:51:11.301Z,40.95
2022-09-03T01:53:49.545Z,40.93
2022-09-03T01:56:38.644Z,41.13
2022-09-03T01:59:15.493Z,41.13
2022-09-03T02:01:48.590Z,41.25
2022-09-03T02:04:23.310Z,41.36
2022-09-03T02:09:33.002Z,41.30
2022-09-03T02:12:14.791Z,41.33
2022-09-03T02:14:44.831Z,41.33
2022-09-03T02:17:14.659Z,40.97
2022-09-03T02:19:45.427Z,40.95
2022-09-03T02:22:15.277Z,40.99
2022-09-03T02:24:45.044Z,40.98
2022-09-03T02:27:15.161Z,40.59
2022-09-03T02:29:45.765Z,41.06
2022-09-03T02:32:16.251Z,40.87
2022-09-03T02:34:46.084Z,41.14
2022-09-03T02:37:18.259Z,41.13
2022-09-03T02:39:48.240Z,41.11
2022-09-03T02:42:18.737Z,41.45
2022-09-03T02:44:57.428Z,40.98
2022-09-03T02:47:30.718Z,41.44
2022-09-03T02:50:00.541Z,41.40
2022-09-03T02:52:30.310Z,41.38
2022-09-03T02:58:10.306Z,41.21
2022-09-03T03:00:40.400Z,41.57
2022-09-03T03:03:10.172Z,41.70
2022-09-03T03:05:51.009Z,41.75
2022-09-03T03:08:23.926Z,41.92
2022-09-03T03:10:56.405Z,41.96
2022-09-03T03:13:27.108Z,42.47
2022-09-03T03:16:01.766Z,42.05
2022-09-03T03:18:33.944Z,42.14
2022-09-03T03:21:14.972Z,42.13
2022-09-03T03:23:45.499Z,41.92
2022-09-03T03:26:19.854Z,42.45
2022-09-03T03:28:50.955Z,42.64
2022-09-03T03:31:22.577Z,42.71
2022-09-03T03:33:57.423Z,42.31
2022-09-03T03:36:30.143Z,42.30
2022-09-03T03:39:01.213Z,42.69
2022-09-03T03:41:35.881Z,42.69
2022-09-03T03:44:09.018Z,43.10
2022-09-03T03:46:41.529Z,42.99
2022-09-03T03:49:11.907Z,43.13
2022-09-03T03:51:41.762Z,42.87
2022-09-03T03:54:11.547Z,42.84
2022-09-03T03:56:43.009Z,42.92
2022-09-03T03:59:12.776Z,42.81
2022-09-03T04:01:43.594Z,42.98
2022-09-03T04:04:14.424Z,43.78
2022-09-03T04:06:44.265Z,43.78
2022-09-03T04:09:14.052Z,43.21
2022-09-03T04:11:43.810Z,43.38
2022-09-03T04:14:13.281Z,43.00
2022-09-03T04:16:43.280Z,43.29
2022-09-03T04:19:13.624Z,43.68
2022-09-03T04:21:43.571Z,43.53
2022-09-03T04:24:13.173Z,43.45
2022-09-03T04:26:42.947Z,43.91
2022-09-03T04:29:12.707Z,43.67
2022-09-03T04:31:44.215Z,43.96
2022-09-03T04:34:14.309Z,43.95
2022-09-03T04:36:44.083Z,43.90
2022-09-03T04:39:13.847Z,43.78
2022-09-03T04:41:44.373Z,44.17
2022-09-03T04:44:13.856Z,44.15
2022-09-03T04:46:43.999Z,44.16
2022-09-03T04:49:13.786Z,44.44
2022-09-03T04:51:43.930Z,44.39
2022-09-03T04:54:13.692Z,44.40
2022-09-03T04:56:43.462Z,44.95
2022-09-03T04:59:13.673Z,44.95
2022-09-03T05:01:44.715Z,44.62
2022-09-03T05:04:14.200Z,44.98
2022-09-03T05:06:45.235Z,44.77
2022-09-03T05:09:15.160Z,44.41
2022-09-03T05:11:45.001Z,44.41
2022-09-03T05:14:14.781Z,44.80
2022-09-03T05:16:52.802Z,45.60
2022-09-03T05:19:16.577Z,45.60
2022-09-03T05:21:46.515Z,45.50
2022-09-03T05:24:16.109Z,45.64
2022-09-03T05:26:45.882Z,45.24
2022-09-03T05:29:16.055Z,45.56
2022-09-03T05:31:46.241Z,45.38
2022-09-03T05:34:16.577Z,45.83
2022-09-03T05:36:49.094Z,45.70
2022-09-03T05:39:18.965Z,45.78
2022-09-03T05:41:50.458Z,45.92
2022-09-03T05:44:22.173Z,45.64
2022-09-03T05:46:52.020Z,45.88
2022-09-03T05:49:21.777Z,45.93
2022-09-03T05:51:51.558Z,45.90
2022-09-03T05:54:21.025Z,45.73
2022-09-03T05:56:50.825Z,45.92
2022-09-03T05:59:20.639Z,45.59
2022-09-03T06:01:52.384Z,45.78
2022-09-03T06:04:22.230Z,45.55
2022-09-03T06:06:51.974Z,45.96
2022-09-03T06:09:23.661Z,45.83
2022-09-03T06:11:54.218Z,45.22
2022-09-03T06:14:25.753Z,45.22
2022-09-03T06:16:57.038Z,44.71
2022-09-03T06:19:27.296Z,44.75
2022-09-03T06:21:57.079Z,44.68
2022-09-03T06:24:28.641Z,44.43
2022-09-03T06:26:58.491Z,44.17
2022-09-03T06:29:28.559Z,43.54
2022-09-03T06:31:58.420Z,43.25
2022-09-03T06:34:28.499Z,42.91
2022-09-03T06:36:59.438Z,42.76
2022-09-03T06:39:29.602Z,42.79
2022-09-03T06:41:59.368Z,42.18
2022-09-03T06:44:30.882Z,41.47
2022-09-03T06:47:01.495Z,41.32
2022-09-03T06:49:31.616Z,40.69
2022-09-03T06:52:01.392Z,40.58
2022-09-03T06:54:31.160Z,40.58
2022-09-03T06:57:00.990Z,40.01
2022-09-03T06:59:30.755Z,39.77
2022-09-03T07:02:02.333Z,39.71
2022-09-03T07:04:33.764Z,39.21
2022-09-03T07:07:03.588Z,38.58
2022-09-03T07:09:35.004Z,38.52
2022-09-03T07:12:06.533Z,38.29
2022-09-03T07:14:36.609Z,37.68
2022-09-03T07:17:06.365Z,38.31
2022-09-03T07:19:36.151Z,37.82
2022-09-03T07:22:09.793Z,37.13
2022-09-03T07:24:39.560Z,37.13
2022-09-03T07:27:13.062Z,37.21
2022-09-03T07:29:40.970Z,36.87
2022-09-03T07:32:11.396Z,36.82
2022-09-03T07:34:41.342Z,36.31
2022-09-03T07:37:11.116Z,36.64
2022-09-03T07:39:41.446Z,36.08
2022-09-03T07:42:11.446Z,35.60
2022-09-03T07:44:41.207Z,35.42
2022-09-03T07:47:10.976Z,35.38
2022-09-03T07:49:40.748Z,35.41
2022-09-03T07:52:12.200Z,35.00
2022-09-03T07:54:44.528Z,34.85
2022-09-03T07:57:14.567Z,34.39
2022-09-03T07:59:44.651Z,34.06
2022-09-03T08:02:14.409Z,33.93
2022-09-03T08:04:45.367Z,33.71
2022-09-03T08:07:15.144Z,33.45
2022-09-03T08:09:44.969Z,33.56
2022-09-03T08:12:15.067Z,33.63
2022-09-03T08:14:45.169Z,33.30
2022-09-03T08:17:14.941Z,34.09
2022-09-03T08:19:46.084Z,33.74
2022-09-03T08:22:15.638Z,33.38
2022-09-03T08:24:45.856Z,33.60
2022-09-03T08:27:15.621Z,33.50
2022-09-03T08:29:47.452Z,33.19
2022-09-03T08:32:17.274Z,32.68
2022-09-03T08:34:47.034Z,32.23
2022-09-03T08:37:17.039Z,31.56
2022-09-03T08:39:47.268Z,31.60
2022-09-03T08:42:20.155Z,31.61
2022-09-03T08:44:56.597Z,31.70
2022-09-03T08:47:45.921Z,31.54
2022-09-03T08:50:27.387Z,31.06
2022-09-03T08:53:09.637Z,30.75
2022-09-03T08:55:43.816Z,30.63
2022-09-03T08:58:19.390Z,30.67
2022-09-03T09:01:03.405Z,30.91
2022-09-03T09:03:53.279Z,31.02
2022-09-03T09:06:34.585Z,30.14
2022-09-03T09:09:23.582Z,30.75
2022-09-03T09:12:07.790Z,30.10
2022-09-03T09:15:10.196Z,29.95
2022-09-03T09:17:54.895Z,30.08
2022-09-03T09:20:39.246Z,29.59
2022-09-03T09:23:11.285Z,29.61
2022-09-03T09:25:44.272Z,29.39
2022-09-03T09:28:20.943Z,28.91
2022-09-03T09:30:53.721Z,28.91
2022-09-03T09:33:25.137Z,28.63
2022-09-03T09:35:54.909Z,28.40
2022-09-03T09:38:33.705Z,28.02
2022-09-03T09:41:15.575Z,28.02
2022-09-03T09:43:47.409Z,28.52
2022-09-03T09:46:21.897Z,28.09
2022-09-03T09:48:57.411Z,27.57
2022-09-03T09:51:31.491Z,27.92
2022-09-03T09:54:13.195Z,27.52
2022-09-03T09:56:44.486Z,28.12
2022-09-03T09:59:15.637Z,28.68
2022-09-03T10:01:46.807Z,28.55
2022-09-03T10:04:32.884Z,28.26
2022-09-03T10:07:08.694Z,28.39
2022-09-03T10:09:38.748Z,28.79
2022-09-03T10:12:23.951Z,28.86
2022-09-03T10:15:13.234Z,28.49
2022-09-03T10:18:02.453Z,28.03
2022-09-03T10:20:47.573Z,27.52
2022-09-03T10:23:23.218Z,27.21
2022-09-03T10:26:07.933Z,27.50
2022-09-03T10:28:41.500Z,27.16
2022-09-03T10:31:30.793Z,27.17
2022-09-03T10:34:03.661Z,27.36
2022-09-03T10:36:41.681Z,27.25
2022-09-03T10:39:29.084Z,27.60
2022-09-03T10:42:16.670Z,27.54
2022-09-03T10:44:57.944Z,26.95
2022-09-03T10:47:51.077Z,26.57
2022-09-03T10:50:32.975Z,26.17
2022-09-03T10:53:21.904Z,25.99
2022-09-03T10:56:12.808Z,25.99
2022-09-03T10:59:00.257Z,26.55
2022-09-03T11:01:44.925Z,25.94
2022-09-03T11:04:23.593Z,26.04
2022-09-03T11:06:58.795Z,26.32
2022-09-03T11:12:40.143Z,26.53
2022-09-03T11:15:18.865Z,26.77
2022-09-03T11:17:51.702Z,26.11
2022-09-03T11:20:23.892Z,26.11
2022-09-03T11:22:59.556Z,26.60
2022-09-03T11:25:34.943Z,25.72
2022-09-03T11:28:24.658Z,26.39
2022-09-03T11:31:23.878Z,26.39
2022-09-03T11:33:56.835Z,26.70
2022-09-03T11:36:35.717Z,25.93
2022-09-03T11:39:16.657Z,26.00
2022-09-03T11:41:51.260Z,25.48
2022-09-03T11:44:21.274Z,25.91
2022-09-03T11:47:00.493Z,25.74
2022-09-03T11:49:36.167Z,25.24
2022-09-03T11:52:09.610Z,25.47
2022-09-03T11:54:46.923Z,25.42
2022-09-03T11:57:19.741Z,25.67
2022-09-03T11:59:49.752Z,25.44
2022-09-03T12:02:28.356Z,25.35
2022-09-03T12:05:22.497Z,25.72
2022-09-03T12:08:12.908Z,25.94
2022-09-03T12:11:00.344Z,25.68
2022-09-03T12:13:49.487Z,25.94
2022-09-03T12:16:27.120Z,25.97
2022-09-03T12:18:59.946Z,26.01
2022-09-03T12:21:30.667Z,25.83
2022-09-03T12:24:03.536Z,24.98
2022-09-03T12:26:36.339Z,25.56
2022-09-03T12:29:07.149Z,25.12
2022-09-03T12:31:47.539Z,24.83
2022-09-03T12:34:19.826Z,24.97
2022-09-03T12:36:52.797Z,24.34
2022-09-03T12:42:08.015Z,25.15
2022-09-03T12:44:40.993Z,25.61
2022-09-03T12:47:37.012Z,25.15
2022-09-03T12:49:53.741Z,25.14
2022-09-03T12:52:35.342Z,25.21
2022-09-03T12:55:12.839Z,24.56
2022-09-03T12:57:48.560Z,24.36
2022-09-03T13:00:20.176Z,24.70
2022-09-03T13:02:56.118Z,24.86
2022-09-03T13:05:31.159Z,24.55
2022-09-03T13:08:04.319Z,24.02
2022-09-03T13:10:38.011Z,23.61
2022-09-03T13:13:25.863Z,23.61
2022-09-03T13:16:24.558Z,24.22
2022-09-03T13:19:01.436Z,24.67
2022-09-03T13:21:39.570Z,24.28
2022-09-03T13:24:48.681Z,24.28
2022-09-03T13:27:54.275Z,24.61
2022-09-03T13:30:27.176Z,24.66
2022-09-03T13:33:17.886Z,24.58
2022-09-03T13:36:02.304Z,24.58
2022-09-03T13:38:56.114Z,24.77
2022-09-03T13:41:40.767Z,23.84
2022-09-03T13:44:37.212Z,24.04
2022-09-03T13:47:34.984Z,24.43
2022-09-03T13:50:23.205Z,23.81
2022-09-03T13:53:07.585Z,24.05
2022-09-03T13:55:40.421Z,23.96
2022-09-03T13:58:14.712Z,24.48
2022-09-03T14:01:01.745Z,23.62
2022-09-03T14:03:49.544Z,23.71
2022-09-03T14:06:45.022Z,23.33
2022-09-03T14:09:26.623Z,23.18
2022-09-03T14:12:17.215Z,22.93
2022-09-03T14:15:18.271Z,22.91
2022-09-03T14:17:51.108Z,22.78
2022-09-03T14:20:29.842Z,23.13
2022-09-03T14:23:10.319Z,23.31
2022-09-03T14:25:42.813Z,23.06
2022-09-03T14:28:26.227Z,22.61
2022-09-03T14:31:06.056Z,22.17
2022-09-03T14:33:53.641Z,23.33
2022-09-03T14:36:35.205Z,24.34
2022-09-03T14:39:16.649Z,24.15
2022-09-03T14:41:53.597Z,23.40
2022-09-03T14:44:54.671Z,23.40
2022-09-03T14:47:33.582Z,23.15
2022-09-03T14:50:21.320Z,23.66
2022-09-03T14:52:54.699Z,23.63
2022-09-03T14:55:35.984Z,23.50
2022-09-03T14:58:28.558Z,23.53
2022-09-03T15:01:38.654Z,23.97
2022-09-03T15:04:23.890Z,23.64
2022-09-03T15:07:21.668Z,23.77
2022-09-03T15:10:13.661Z,23.61
2022-09-03T15:12:46.515Z,23.21
2022-09-03T15:15:24.991Z,23.33
2022-09-03T15:18:15.898Z,23.20
2022-09-03T15:20:57.454Z,23.38
2022-09-03T15:23:45.211Z,23.07
2022-09-03T15:26:34.377Z,23.04
2022-09-03T15:29:32.718Z,23.04
2022-09-03T15:32:23.491Z,22.94
2022-09-03T15:35:11.782Z,22.18
2022-09-03T15:37:50.798Z,22.15
2022-09-03T15:40:33.899Z,22.58
2022-09-03T15:43:09.716Z,22.25
2022-09-03T15:45:52.045Z,22.18
2022-09-03T15:48:24.993Z,22.57
2022-09-03T15:51:10.506Z,22.67
2022-09-03T15:53:55.495Z,22.77
2022-09-03T15:56:37.995Z,22.83
2022-09-03T15:59:28.674Z,22.69
2022-09-03T16:02:34.278Z,22.92
2022-09-03T16:05:14.263Z,23.50
2022-09-03T16:07:56.134Z,23.01
2022-09-03T16:10:44.872Z,22.41
2022-09-03T16:13:35.176Z,22.62
2022-09-03T16:16:09.779Z,22.93
2022-09-03T16:19:01.334Z,22.80
2022-09-03T16:21:51.720Z,23.02
2022-09-03T16:27:32.984Z,22.67
2022-09-03T16:30:11.871Z,22.65
2022-09-03T16:32:47.067Z,22.70
2022-09-03T16:35:37.265Z,22.84
2022-09-03T16:38:26.572Z,23.04
2022-09-03T16:41:15.446Z,22.65
2022-09-03T16:44:10.644Z,23.20
2022-09-03T16:47:01.866Z,23.09
2022-09-03T16:49:43.407Z,23.88
2022-09-03T16:52:38.460Z,24.07
2022-09-03T16:55:22.063Z,23.90
2022-09-03T16:57:56.222Z,24.11
2022-09-03T17:00:31.665Z,24.22
2022-09-03T17:03:26.421Z,25.13
2022-09-03T17:06:13.351Z,25.09
2022-09-03T17:08:46.080Z,25.38
2022-09-03T17:14:07.158Z,24.99
2022-09-03T17:16:44.242Z,24.61
2022-09-03T17:19:46.824Z,24.78
2022-09-03T17:22:24.865Z,24.61
2022-09-03T17:24:57.895Z,24.49
2022-09-03T17:27:30.978Z,24.80
2022-09-03T17:30:23.899Z,25.27
2022-09-03T17:33:15.813Z,25.24
2022-09-03T17:36:13.992Z,25.93
2022-09-03T17:38:55.293Z,26.18
2022-09-03T17:41:52.008Z,26.46
2022-09-03T17:44:30.831Z,26.93
2022-09-03T17:47:04.409Z,28.98
2022-09-03T17:49:49.000Z,29.85
2022-09-03T17:52:32.529Z,31.15
2022-09-03T17:55:05.561Z,31.37
2022-09-03T17:57:41.257Z,31.61
2022-09-03T18:00:13.235Z,32.15
2022-09-03T18:03:09.651Z,32.79
2022-09-03T18:06:04.203Z,33.37
2022-09-03T18:08:51.715Z,33.71
2022-09-03T18:11:30.290Z,33.71
2022-09-03T18:14:26.995Z,34.02
2022-09-03T18:17:17.773Z,34.57
2022-09-03T18:20:16.745Z,34.42
2022-09-03T18:23:12.936Z,34.28
2022-09-03T18:26:03.761Z,34.48
2022-09-03T18:28:59.867Z,35.02
2022-09-03T18:31:47.275Z,35.54
2022-09-03T18:34:37.718Z,35.67
2022-09-03T18:37:25.111Z,35.88
2022-09-03T18:40:12.213Z,36.32
2022-09-03T18:43:11.251Z,36.55
2022-09-03T18:47:05.769Z,36.78
2022-09-03T18:49:23.327Z,36.92
2022-09-03T18:52:22.734Z,36.90
2022-09-03T18:55:13.252Z,37.29
2022-09-03T18:58:15.581Z,37.09
2022-09-03T19:01:12.001Z,37.73
2022-09-03T19:04:11.102Z,37.73
2022-09-03T19:07:22.403Z,37.60
2022-09-03T19:10:18.436Z,38.53
2022-09-03T19:13:28.419Z,39.18
2022-09-03T19:16:27.722Z,39.18
2022-09-03T19:19:28.273Z,39.17
2022-09-03T19:22:18.823Z,39.38
2022-09-03T19:25:09.135Z,39.67
2022-09-03T19:28:02.421Z,39.48
2022-09-03T19:31:20.219Z,40.09
2022-09-03T19:34:19.366Z,40.62
2022-09-03T19:37:12.168Z,39.67
2022-09-03T19:40:23.603Z,40.02
2022-09-03T19:43:40.281Z,40.33
2022-09-03T19:46:46.434Z,40.33
2022-09-03T19:50:04.107Z,40.68
2022-09-03T19:53:18.677Z,41.01
2022-09-03T19:56:17.237Z,41.59
2022-09-03T19:59:25.694Z,40.84
2022-09-03T20:02:12.901Z,40.84
2022-09-03T20:05:18.101Z,42.32
2022-09-03T20:08:08.505Z,42.53
2022-09-03T20:10:38.875Z,42.09
2022-09-03T20:13:13.427Z,41.46
2022-09-03T20:15:52.217Z,41.98
2022-09-03T20:18:39.960Z,42.12
2022-09-03T20:21:15.757Z,42.12
2022-09-03T20:23:51.143Z,43.18
2022-09-03T20:26:52.209Z,43.15
2022-09-03T20:29:27.578Z,43.60
2022-09-03T20:32:08.686Z,43.88
2022-09-03T20:34:41.237Z,43.80
2022-09-03T20:37:21.178Z,43.80
2022-09-03T20:40:28.875Z,44.28
2022-09-03T20:43:21.498Z,44.21
2022-09-03T20:46:08.894Z,44.72
2022-09-03T20:48:47.326Z,44.95
2022-09-03T20:51:21.790Z,44.69
2022-09-03T20:54:09.547Z,44.47
2022-09-03T20:57:00.313Z,44.47
2022-09-03T20:59:44.688Z,45.04
2022-09-03T21:02:26.704Z,45.00
2022-09-03T21:05:22.020Z,45.31
2022-09-03T21:08:00.739Z,45.16
2022-09-03T21:10:39.084Z,45.55
2022-09-03T21:13:23.470Z,46.10
2022-09-03T21:15:57.243Z,45.85
2022-09-03T21:18:41.988Z,46.25
2022-09-03T21:21:14.500Z,46.54
2022-09-03T21:23:48.020Z,46.87
2022-09-03T21:26:26.393Z,46.48
2022-09-03T21:29:04.680Z,46.59
2022-09-03T21:31:40.307Z,47.01
2022-09-03T21:34:14.884Z,47.41
2022-09-03T21:36:46.789Z,47.57
2022-09-03T21:39:31.424Z,47.66
2022-09-03T21:42:09.957Z,47.77
2022-09-03T21:44:45.665Z,47.80
2022-09-03T21:47:18.516Z,47.80
2022-09-03T21:50:06.708Z,47.99
2022-09-03T21:52:42.107Z,48.25
2022-09-03T21:55:37.089Z,48.73
2022-09-03T21:58:16.695Z,49.02
2022-09-03T22:00:49.200Z,49.04
2022-09-03T22:03:18.982Z,49.87
2022-09-03T22:05:55.014Z,50.99
2022-09-03T22:08:39.439Z,51.64
2022-09-03T22:11:30.004Z,51.67
2022-09-03T22:14:11.889Z,52.02
2022-09-03T22:17:10.441Z,53.21
2022-09-03T22:19:40.510Z,54.23
2022-09-03T22:22:14.538Z,54.23
2022-09-03T22:24:50.068Z,54.31
2022-09-03T22:27:36.707Z,54.56
2022-09-03T22:30:19.866Z,54.91
2022-09-03T22:32:58.694Z,54.91
2022-09-03T22:35:51.720Z,55.49
2022-09-03T22:38:27.179Z,55.45
2022-09-03T22:41:11.973Z,55.55
2022-09-03T22:43:56.493Z,56.04
2022-09-03T22:46:29.440Z,56.25
2022-09-03T22:49:21.430Z,56.05
2022-09-03T22:51:54.229Z,56.73
2022-09-03T22:54:27.163Z,56.36
2022-09-03T22:56:58.869Z,57.03
2022-09-03T22:59:31.682Z,57.16
2022-09-03T23:02:16.286Z,57.33
2022-09-03T23:05:17.409Z,57.54
2022-09-03T23:07:51.850Z,58.49
2022-09-03T23:10:27.627Z,59.01
2022-09-03T23:13:06.061Z,58.72
2022-09-03T23:15:38.843Z,59.02
2022-09-03T23:18:20.670Z,59.53
2022-09-03T23:20:56.307Z,59.13
2022-09-03T23:23:28.991Z,59.21
2022-09-03T23:26:11.543Z,59.79
2022-09-03T23:28:47.320Z,60.02
2022-09-03T23:31:28.620Z,60.31
2022-09-03T23:33:58.127Z,61.35
2022-09-03T23:37:10.363Z,60.95
2022-09-03T23:39:46.211Z,60.95
2022-09-03T23:42:30.771Z,61.79
2022-09-03T23:45:03.421Z,61.73
2022-09-03T23:47:53.673Z,61.50
2022-09-03T23:50:29.444Z,61.99
2022-09-03T23:53:04.664Z,61.75
2022-09-03T23:58:39.924Z,62.67
